createdAt,value
2022-11-25T00:01:33.282Z,12.70
2022-11-25T00:04:00.792Z,13.97
2022-11-25T00:06:35.346Z,15.47
2022-11-25T00:09:04.795Z,11.43
2022-11-25T00:11:34.605Z,14.80
2022-11-25T00:14:02.098Z,11.33
2022-11-25T00:16:29.615Z,12.30
2022-11-25T00:18:57.770Z,17.23
2022-11-25T00:21:31.829Z,12.93
2022-11-25T00:24:00.689Z,16.57
2022-11-25T00:26:29.236Z,11.30
2022-11-25T00:28:58.352Z,10.20
2022-11-25T00:31:27.332Z,15.97
2022-11-25T00:33:55.073Z,9.10
2022-11-25T00:36:23.847Z,12.53
2022-11-25T00:38:58.284Z,14.93
2022-11-25T00:41:26.255Z,12.33
2022-11-25T00:43:53.682Z,12.37
2022-11-25T00:46:21.198Z,10.27
2022-11-25T00:48:48.643Z,10.77
2022-11-25T00:51:16.087Z,11.13
2022-11-25T00:53:43.537Z,13.20
2022-11-25T00:56:10.974Z,14.67
2022-11-25T00:58:38.419Z,15.17
2022-11-25T01:01:06.105Z,14.43
2022-11-25T01:03:33.683Z,11.50
2022-11-25T01:06:11.698Z,14.37
2022-11-25T01:08:39.576Z,9.37
2022-11-25T01:11:08.117Z,12.20
2022-11-25T01:13:35.712Z,13.77
2022-11-25T01:16:04.174Z,10.13
2022-11-25T01:18:32.112Z,12.97
2022-11-25T01:21:09.176Z,9.83
2022-11-25T01:23:37.021Z,12.83
2022-11-25T01:26:09.016Z,11.37
2022-11-25T01:28:36.488Z,12.10
2022-11-25T01:31:05.310Z,13.20
2022-11-25T01:33:32.959Z,15.40
2022-11-25T01:36:04.229Z,17.77
2022-11-25T01:38:32.248Z,11.03
2022-11-25T01:41:00.134Z,11.67
2022-11-25T01:43:28.166Z,14.17
2022-11-25T01:46:02.776Z,12.87
2022-11-25T01:48:37.512Z,8.43
2022-11-25T01:51:05.451Z,14.97
2022-11-25T01:53:33.631Z,8.37
2022-11-25T01:56:02.416Z,16.47
2022-11-25T01:58:31.390Z,9.10
2022-11-25T02:00:59.054Z,11.90
2022-11-25T02:03:31.508Z,11.80
2022-11-25T02:06:11.112Z,12.53
2022-11-25T02:08:39.240Z,10.23
2022-11-25T02:11:06.781Z,13.37
2022-11-25T02:13:34.564Z,15.00
2022-11-25T02:16:02.095Z,6.97
2022-11-25T02:18:29.620Z,11.17
2022-11-25T02:20:57.011Z,12.47
2022-11-25T02:23:43.186Z,11.43
2022-11-25T02:26:10.639Z,16.47
2022-11-25T02:28:38.589Z,10.83
2022-11-25T02:31:07.501Z,11.07
2022-11-25T02:33:35.248Z,12.00
2022-11-25T02:36:05.820Z,14.20
2022-11-25T02:38:39.027Z,14.80
2022-11-25T02:41:08.453Z,9.93
2022-11-25T02:43:35.866Z,9.60
2022-11-25T02:46:05.230Z,10.37
2022-11-25T02:49:06.818Z,13.60
2022-11-25T02:51:23.614Z,14.00
2022-11-25T02:53:51.598Z,15.77
2022-11-25T02:56:20.172Z,14.50
2022-11-25T02:58:47.786Z,16.60
2022-11-25T03:01:15.334Z,9.87
2022-11-25T03:03:43.163Z,10.87
2022-11-25T03:06:10.596Z,9.67
2022-11-25T03:08:38.016Z,14.53
2022-11-25T03:11:06.112Z,12.93
2022-11-25T03:13:33.597Z,12.43
2022-11-25T03:16:01.192Z,10.20
2022-11-25T03:18:28.697Z,15.93
2022-11-25T03:20:56.441Z,10.00
2022-11-25T03:23:23.874Z,10.10
2022-11-25T03:25:51.353Z,12.73
2022-11-25T03:28:18.827Z,8.23
2022-11-25T03:30:46.338Z,16.10
2022-11-25T03:33:13.796Z,11.70
2022-11-25T03:35:41.228Z,11.03
2022-11-25T03:38:08.638Z,7.60
2022-11-25T03:40:36.106Z,11.20
2022-11-25T03:43:03.515Z,12.17
2022-11-25T03:45:30.998Z,11.43
2022-11-25T03:47:58.469Z,12.90
2022-11-25T03:50:25.939Z,14.40
2022-11-25T03:52:53.414Z,10.77
2022-11-25T03:55:20.831Z,12.10
2022-11-25T03:57:48.328Z,11.47
2022-11-25T04:00:15.876Z,11.17
2022-11-25T04:02:43.333Z,9.80
2022-11-25T04:05:10.827Z,10.53
2022-11-25T04:07:38.319Z,17.27
2022-11-25T04:10:06.055Z,14.57
2022-11-25T04:12:33.495Z,9.63
2022-11-25T04:15:00.928Z,10.70
2022-11-25T04:17:28.376Z,20.20
2022-11-25T04:19:55.818Z,15.87
2022-11-25T04:22:23.262Z,12.57
2022-11-25T04:24:50.795Z,13.87
2022-11-25T04:27:20.318Z,11.47
2022-11-25T04:29:48.195Z,10.87
2022-11-25T04:32:15.680Z,15.03
2022-11-25T04:34:43.121Z,16.77
2022-11-25T04:37:10.554Z,13.90
2022-11-25T04:39:37.998Z,17.60
2022-11-25T04:42:05.406Z,11.93
2022-11-25T04:44:32.914Z,19.73
2022-11-25T04:47:00.469Z,13.37
2022-11-25T04:49:27.997Z,11.63
2022-11-25T04:51:55.454Z,12.63
2022-11-25T04:54:22.906Z,18.07
2022-11-25T04:56:50.314Z,12.70
2022-11-25T04:59:17.768Z,13.53
2022-11-25T05:01:45.240Z,15.30
2022-11-25T05:04:12.725Z,11.97
2022-11-25T05:06:40.139Z,18.17
2022-11-25T05:09:07.541Z,9.80
2022-11-25T05:11:34.973Z,10.67
2022-11-25T05:14:02.415Z,12.97
2022-11-25T05:16:29.896Z,15.00
2022-11-25T05:18:57.356Z,10.90
2022-11-25T05:21:24.867Z,11.60
2022-11-25T05:23:55.833Z,13.90
2022-11-25T05:26:23.621Z,11.20
2022-11-25T05:28:51.086Z,14.00
2022-11-25T05:31:18.589Z,10.50
2022-11-25T05:33:46.211Z,16.60
2022-11-25T05:36:13.649Z,13.30
2022-11-25T05:38:41.082Z,14.17
2022-11-25T05:41:08.948Z,12.03
2022-11-25T05:43:36.393Z,11.53
2022-11-25T05:46:07.269Z,12.77
2022-11-25T05:48:34.903Z,11.97
2022-11-25T05:51:03.237Z,18.97
2022-11-25T05:53:30.891Z,15.53
2022-11-25T05:55:59.942Z,15.40
2022-11-25T05:58:28.773Z,9.43
2022-11-25T06:00:56.288Z,12.97
2022-11-25T06:03:27.365Z,14.87
2022-11-25T06:05:58.430Z,13.13
2022-11-25T06:08:26.442Z,9.40
2022-11-25T06:10:54.156Z,15.87
2022-11-25T06:13:21.733Z,19.40
2022-11-25T06:15:49.214Z,14.07
2022-11-25T06:18:17.381Z,14.37
2022-11-25T06:20:44.821Z,13.30
2022-11-25T06:23:12.278Z,9.53
2022-11-25T06:25:39.687Z,13.90
2022-11-25T06:28:14.205Z,6.77
2022-11-25T06:30:41.664Z,16.40
2022-11-25T06:33:09.059Z,12.23
2022-11-25T06:35:36.655Z,16.33
2022-11-25T06:38:04.085Z,13.00
2022-11-25T06:40:31.493Z,13.77
2022-11-25T06:42:58.918Z,19.03
2022-11-25T06:45:26.359Z,12.80
2022-11-25T06:47:53.866Z,11.10
2022-11-25T06:50:21.300Z,14.03
2022-11-25T06:52:48.745Z,10.17
2022-11-25T06:55:16.224Z,13.03
2022-11-25T06:57:43.695Z,15.03
2022-11-25T07:00:11.334Z,16.03
2022-11-25T07:02:44.028Z,20.83
2022-11-25T07:05:12.874Z,15.47
2022-11-25T07:07:40.348Z,12.20
2022-11-25T07:10:08.321Z,15.00
2022-11-25T07:12:35.796Z,13.27
2022-11-25T07:15:03.274Z,19.37
2022-11-25T07:17:30.731Z,11.50
2022-11-25T07:19:58.176Z,13.60
2022-11-25T07:22:25.641Z,17.40
2022-11-25T07:24:53.057Z,16.70
2022-11-25T07:27:20.552Z,16.50
2022-11-25T07:30:03.500Z,17.53
2022-11-25T07:32:36.336Z,14.93
2022-11-25T07:35:03.892Z,11.27
2022-11-25T07:37:31.318Z,18.77
2022-11-25T07:39:58.786Z,15.33
2022-11-25T07:42:26.306Z,15.87
2022-11-25T07:44:53.738Z,14.90
2022-11-25T07:47:21.203Z,11.90
2022-11-25T07:49:48.647Z,13.73
2022-11-25T07:52:16.146Z,8.93
2022-11-25T07:54:43.691Z,14.20
2022-11-25T07:57:11.173Z,12.97
2022-11-25T07:59:38.849Z,12.93
2022-11-25T08:02:06.863Z,12.40
2022-11-25T08:04:34.369Z,9.77
2022-11-25T08:07:01.892Z,14.70
2022-11-25T08:09:29.348Z,17.17
2022-11-25T08:11:56.844Z,10.03
2022-11-25T08:14:24.257Z,21.97
2022-11-25T08:16:51.680Z,14.37
2022-11-25T08:19:19.211Z,11.43
2022-11-25T08:21:46.722Z,11.03
2022-11-25T08:24:16.282Z,9.83
2022-11-25T08:26:43.745Z,6.57
2022-11-25T08:29:13.305Z,15.60
2022-11-25T08:31:40.866Z,13.70
2022-11-25T08:34:08.387Z,11.17
2022-11-25T08:36:35.912Z,10.03
2022-11-25T08:39:22.538Z,8.67
2022-11-25T08:41:53.085Z,11.90
2022-11-25T08:44:20.621Z,6.03
2022-11-25T08:46:48.168Z,10.77
2022-11-25T08:49:15.736Z,11.23
2022-11-25T08:51:43.453Z,8.43
2022-11-25T08:54:10.884Z,10.90
2022-11-25T08:56:38.349Z,12.60
2022-11-25T08:59:05.851Z,8.60
2022-11-25T09:01:33.379Z,9.30
2022-11-25T09:04:01.193Z,9.60
2022-11-25T09:06:29.025Z,7.63
2022-11-25T09:08:58.498Z,11.10
2022-11-25T09:11:26.193Z,9.77
2022-11-25T09:13:53.851Z,12.17
2022-11-25T09:16:21.473Z,12.07
2022-11-25T09:18:54.205Z,15.10
2022-11-25T09:21:23.472Z,7.83
2022-11-25T09:23:51.488Z,11.73
2022-11-25T09:26:26.328Z,14.50
2022-11-25T09:28:53.945Z,8.73
2022-11-25T09:31:22.006Z,12.73
2022-11-25T09:33:49.586Z,6.53
2022-11-25T09:36:17.768Z,9.47
2022-11-25T09:38:45.190Z,10.70
2022-11-25T09:41:31.411Z,11.57
2022-11-25T09:44:05.637Z,11.60
2022-11-25T09:46:46.664Z,12.07
2022-11-25T09:49:14.117Z,7.53
2022-11-25T09:52:00.236Z,9.47
2022-11-25T09:54:30.511Z,12.50
2022-11-25T09:57:03.928Z,7.13
2022-11-25T09:59:42.122Z,8.33
2022-11-25T10:02:15.534Z,10.63
2022-11-25T10:04:46.015Z,8.87
2022-11-25T10:07:21.644Z,7.50
2022-11-25T10:09:49.226Z,7.40
2022-11-25T10:12:16.661Z,8.37
2022-11-25T10:14:48.929Z,12.33
2022-11-25T10:17:16.428Z,13.37
2022-11-25T10:19:47.567Z,9.17
2022-11-25T10:22:18.058Z,8.83
2022-11-25T10:24:45.704Z,10.23
2022-11-25T10:27:18.944Z,11.10
2022-11-25T10:29:50.302Z,8.03
2022-11-25T10:32:22.767Z,13.23
2022-11-25T10:34:54.898Z,12.20
2022-11-25T10:37:27.460Z,9.00
2022-11-25T10:39:54.881Z,13.13
2022-11-25T10:42:23.175Z,9.47
2022-11-25T10:44:50.943Z,13.90
2022-11-25T10:47:24.181Z,9.80
2022-11-25T10:50:20.837Z,12.17
2022-11-25T10:52:51.042Z,10.00
2022-11-25T10:55:20.390Z,13.23
2022-11-25T10:57:47.821Z,10.70
2022-11-25T11:00:29.751Z,9.20
2022-11-25T11:02:58.124Z,8.10
2022-11-25T11:05:30.318Z,8.30
2022-11-25T11:08:09.956Z,9.63
2022-11-25T11:10:37.466Z,11.73
2022-11-25T11:13:06.406Z,10.47
2022-11-25T11:15:44.870Z,10.97
2022-11-25T11:18:27.798Z,14.03
2022-11-25T11:20:56.911Z,8.47
2022-11-25T11:23:24.970Z,10.70
2022-11-25T11:25:58.436Z,11.77
2022-11-25T11:28:34.858Z,9.93
2022-11-25T11:31:02.296Z,9.23
2022-11-25T11:33:31.444Z,12.93
2022-11-25T11:35:58.915Z,10.70
2022-11-25T11:38:34.367Z,11.27
2022-11-25T11:41:10.844Z,6.83
2022-11-25T11:43:47.513Z,11.90
2022-11-25T11:46:22.466Z,11.97
2022-11-25T11:49:03.115Z,15.70
2022-11-25T11:51:49.235Z,12.67
2022-11-25T11:54:23.546Z,9.57
2022-11-25T11:57:05.691Z,11.30
2022-11-25T11:59:42.211Z,9.03
2022-11-25T12:02:18.145Z,11.47
2022-11-25T12:04:54.923Z,13.87
2022-11-25T12:07:37.248Z,10.30
2022-11-25T12:10:13.625Z,12.27
2022-11-25T12:12:45.839Z,10.20
2022-11-25T12:15:17.664Z,12.07
2022-11-25T12:17:49.290Z,10.13
2022-11-25T12:20:40.103Z,11.47
2022-11-25T12:23:13.577Z,8.50
2022-11-25T12:25:42.064Z,9.17
2022-11-25T12:28:15.895Z,8.97
2022-11-25T12:31:04.964Z,15.03
2022-11-25T12:33:55.657Z,11.93
2022-11-25T12:36:28.876Z,12.70
2022-11-25T12:39:00.828Z,12.80
2022-11-25T12:41:40.496Z,15.77
2022-11-25T12:44:13.001Z,10.87
2022-11-25T12:46:40.423Z,11.83
2022-11-25T12:49:13.222Z,8.83
2022-11-25T12:51:59.557Z,12.20
2022-11-25T12:54:36.588Z,12.67
2022-11-25T12:57:16.530Z,9.50
2022-11-25T13:00:39.105Z,6.63
2022-11-25T13:03:10.693Z,13.77
2022-11-25T13:05:50.289Z,11.07
2022-11-25T13:08:20.580Z,8.77
2022-11-25T13:11:07.193Z,5.83
2022-11-25T13:13:53.734Z,7.10
2022-11-25T13:16:22.385Z,10.77
2022-11-25T13:18:50.767Z,9.60
2022-11-25T13:21:19.198Z,11.30
2022-11-25T13:23:53.604Z,6.50
2022-11-25T13:26:30.051Z,9.50
2022-11-25T13:28:57.608Z,6.97
2022-11-25T13:31:35.424Z,9.03
2022-11-25T13:34:07.718Z,6.07
2022-11-25T13:37:04.383Z,7.40
2022-11-25T13:39:36.209Z,8.10
2022-11-25T13:42:05.769Z,7.20
2022-11-25T13:44:35.261Z,11.03
2022-11-25T13:47:24.726Z,5.10
2022-11-25T13:49:56.854Z,8.10
2022-11-25T13:52:27.373Z,7.23
2022-11-25T13:54:56.434Z,11.33
2022-11-25T13:57:34.442Z,6.97
2022-11-25T14:00:09.100Z,8.23
2022-11-25T14:02:41.294Z,11.30
2022-11-25T14:05:11.921Z,16.77
2022-11-25T14:07:46.424Z,6.43
2022-11-25T14:10:16.666Z,7.40
2022-11-25T14:12:50.594Z,6.77
2022-11-25T14:15:20.919Z,6.53
2022-11-25T14:17:48.381Z,7.57
2022-11-25T14:20:18.895Z,6.80
2022-11-25T14:23:05.450Z,8.03
2022-11-25T14:25:42.728Z,6.70
2022-11-25T14:28:30.479Z,9.07
2022-11-25T14:31:00.306Z,5.67
2022-11-25T14:33:34.718Z,11.03
2022-11-25T14:36:15.886Z,9.00
2022-11-25T14:38:46.005Z,8.07
2022-11-25T14:41:21.714Z,5.27
2022-11-25T14:43:51.754Z,10.63
2022-11-25T14:46:24.017Z,10.80
2022-11-25T14:49:03.199Z,10.30
2022-11-25T14:51:37.576Z,11.97
2022-11-25T14:54:08.398Z,7.73
2022-11-25T14:56:37.244Z,5.00
2022-11-25T14:59:04.773Z,11.83
2022-11-25T15:01:33.684Z,4.03
2022-11-25T15:04:02.697Z,8.20
2022-11-25T15:06:33.944Z,10.80
2022-11-25T15:09:01.686Z,8.30
2022-11-25T15:11:33.585Z,6.37
2022-11-25T15:14:05.358Z,8.00
2022-11-25T15:16:32.912Z,7.80
2022-11-25T15:19:01.775Z,10.63
2022-11-25T15:21:30.791Z,8.53
2022-11-25T15:23:58.364Z,11.00
2022-11-25T15:26:27.647Z,5.77
2022-11-25T15:28:56.396Z,8.67
2022-11-25T15:31:26.930Z,6.93
2022-11-25T15:33:56.213Z,6.87
2022-11-25T15:36:24.437Z,10.57
2022-11-25T15:38:51.974Z,6.27
2022-11-25T15:41:21.315Z,10.57
2022-11-25T15:43:54.333Z,7.87
2022-11-25T15:46:22.782Z,8.77
2022-11-25T15:48:51.812Z,5.93
2022-11-25T15:51:29.407Z,8.30
2022-11-25T15:54:08.337Z,7.87
2022-11-25T15:56:38.553Z,6.97
2022-11-25T15:59:06.116Z,6.17
2022-11-25T16:01:33.657Z,6.00
2022-11-25T16:04:11.862Z,7.10
2022-11-25T16:06:52.564Z,5.27
2022-11-25T16:09:21.260Z,7.80
2022-11-25T16:11:48.687Z,8.83
2022-11-25T16:14:18.864Z,13.80
2022-11-25T16:16:47.221Z,10.37
2022-11-25T16:19:17.135Z,6.63
2022-11-25T16:21:46.530Z,7.30
2022-11-25T16:24:29.081Z,6.33
2022-11-25T16:27:07.622Z,5.53
2022-11-25T16:29:37.714Z,6.60
2022-11-25T16:32:15.390Z,7.40
2022-11-25T16:34:43.390Z,6.23
2022-11-25T16:37:10.921Z,6.00
2022-11-25T16:39:39.178Z,6.33
2022-11-25T16:42:07.376Z,8.20
2022-11-25T16:44:36.991Z,10.93
2022-11-25T16:47:04.490Z,8.33
2022-11-25T16:49:32.227Z,11.00
2022-11-25T16:51:59.681Z,10.93
2022-11-25T16:54:27.165Z,6.73
2022-11-25T16:56:55.290Z,12.00
2022-11-25T16:59:27.283Z,11.70
2022-11-25T17:01:55.012Z,10.67
2022-11-25T17:04:22.620Z,11.73
2022-11-25T17:07:24.309Z,9.63
2022-11-25T17:09:39.335Z,11.07
2022-11-25T17:12:10.911Z,10.00
2022-11-25T17:14:38.601Z,9.00
2022-11-25T17:17:06.319Z,7.67
2022-11-25T17:19:33.912Z,12.53
2022-11-25T17:22:01.413Z,11.40
2022-11-25T17:24:28.887Z,12.17
2022-11-25T17:26:57.992Z,6.77
2022-11-25T17:29:30.131Z,9.43
2022-11-25T17:31:58.713Z,13.37
2022-11-25T17:34:26.388Z,11.73
2022-11-25T17:36:53.922Z,7.27
2022-11-25T17:39:21.415Z,10.00
2022-11-25T17:41:50.315Z,6.20
2022-11-25T17:44:20.729Z,11.63
2022-11-25T17:46:48.348Z,12.13
2022-11-25T17:49:16.399Z,8.40
2022-11-25T17:51:44.286Z,5.50
2022-11-25T17:54:11.904Z,11.93
2022-11-25T17:56:50.582Z,14.73
2022-11-25T17:59:27.010Z,11.57
2022-11-25T18:01:55.052Z,8.63
2022-11-25T18:04:23.815Z,14.47
2022-11-25T18:06:51.415Z,10.10
2022-11-25T18:09:19.208Z,9.83
2022-11-25T18:11:57.450Z,7.97
2022-11-25T18:14:37.600Z,12.03
2022-11-25T18:17:06.434Z,11.70
2022-11-25T18:19:34.921Z,12.57
2022-11-25T18:22:13.813Z,13.13
2022-11-25T18:24:41.632Z,16.60
2022-11-25T18:27:26.270Z,12.00
2022-11-25T18:29:53.976Z,12.60
2022-11-25T18:32:21.516Z,16.93
2022-11-25T18:34:50.275Z,15.77
2022-11-25T18:37:17.767Z,10.67
2022-11-25T18:39:45.278Z,12.17
2022-11-25T18:42:30.912Z,17.80
2022-11-25T18:44:58.428Z,13.03
2022-11-25T18:47:25.919Z,15.10
2022-11-25T18:49:56.119Z,9.83
2022-11-25T18:52:24.542Z,11.43
2022-11-25T18:54:51.984Z,11.43
2022-11-25T18:57:19.687Z,13.63
2022-11-25T18:59:56.012Z,11.07
2022-11-25T19:02:27.668Z,15.97
2022-11-25T19:04:55.210Z,11.40
2022-11-25T19:07:22.756Z,15.73
2022-11-25T19:09:50.251Z,14.00
2022-11-25T19:12:19.737Z,10.43
2022-11-25T19:14:48.140Z,16.60
2022-11-25T19:17:20.264Z,11.67
2022-11-25T19:19:47.931Z,18.33
2022-11-25T19:22:15.546Z,13.57
2022-11-25T19:24:43.351Z,11.40
2022-11-25T19:27:22.155Z,17.97
2022-11-25T19:29:50.116Z,17.23
2022-11-25T19:32:20.204Z,12.77
2022-11-25T19:34:49.139Z,18.40
2022-11-25T19:37:18.266Z,14.37
2022-11-25T19:39:45.707Z,12.87
2022-11-25T19:42:13.149Z,16.00
2022-11-25T19:44:40.656Z,14.63
2022-11-25T19:47:17.683Z,14.53
2022-11-25T19:49:45.407Z,14.40
2022-11-25T19:52:14.819Z,17.20
2022-11-25T19:54:42.404Z,22.30
2022-11-25T19:57:14.502Z,15.27
2022-11-25T19:59:43.645Z,18.33
2022-11-25T20:02:13.368Z,20.60
2022-11-25T20:04:40.941Z,18.67
2022-11-25T20:07:10.425Z,21.73
2022-11-25T20:09:38.151Z,15.53
2022-11-25T20:12:22.415Z,14.83
2022-11-25T20:14:50.431Z,16.20
2022-11-25T20:17:29.146Z,11.77
2022-11-25T20:19:58.911Z,19.57
2022-11-25T20:22:31.172Z,20.43
2022-11-25T20:25:00.885Z,17.13
2022-11-25T20:27:28.717Z,21.00
2022-11-25T20:29:56.163Z,20.73
2022-11-25T20:32:28.215Z,20.43
2022-11-25T20:34:56.090Z,18.77
2022-11-25T20:37:24.022Z,18.57
2022-11-25T20:39:55.625Z,20.57
2022-11-25T20:42:23.701Z,21.27
2022-11-25T20:44:57.209Z,20.97
2022-11-25T20:47:25.148Z,21.13
2022-11-25T20:49:52.805Z,22.23
2022-11-25T20:52:32.853Z,21.10
2022-11-25T20:55:00.549Z,20.50
2022-11-25T20:57:27.994Z,21.57
2022-11-25T20:59:55.414Z,18.17
2022-11-25T21:02:22.971Z,22.23
2022-11-25T21:04:50.559Z,23.17
2022-11-25T21:07:18.210Z,20.20
2022-11-25T21:09:45.818Z,21.23
2022-11-25T21:12:18.814Z,25.20
2022-11-25T21:14:47.118Z,19.80
2022-11-25T21:17:14.599Z,30.03
2022-11-25T21:19:42.038Z,25.40
2022-11-25T21:22:12.337Z,24.07
2022-11-25T21:24:41.438Z,20.07
2022-11-25T21:27:15.937Z,23.63
2022-11-25T21:29:44.309Z,24.20
2022-11-25T21:32:30.056Z,26.10
2022-11-25T21:34:57.506Z,21.07
2022-11-25T21:37:35.086Z,26.67
2022-11-25T21:40:03.125Z,23.27
2022-11-25T21:42:31.850Z,20.63
2022-11-25T21:44:59.633Z,24.23
2022-11-25T21:47:29.636Z,21.63
2022-11-25T21:49:57.088Z,25.97
2022-11-25T21:52:24.597Z,24.63
2022-11-25T21:54:52.049Z,25.23
2022-11-25T21:57:26.844Z,23.57
2022-11-25T21:59:54.642Z,30.57
2022-11-25T22:02:23.526Z,25.13
2022-11-25T22:04:51.472Z,20.30
2022-11-25T22:07:19.060Z,23.33
2022-11-25T22:09:46.534Z,18.00
2022-11-25T22:12:41.472Z,25.33
2022-11-25T22:15:14.745Z,23.17
2022-11-25T22:17:42.499Z,24.20
2022-11-25T22:20:24.903Z,25.03
2022-11-25T22:22:52.359Z,24.23
2022-11-25T22:25:19.935Z,30.50
2022-11-25T22:27:48.230Z,24.90
2022-11-25T22:30:16.803Z,26.73
2022-11-25T22:32:45.016Z,26.20
2022-11-25T22:35:16.677Z,30.93
2022-11-25T22:37:44.209Z,28.40
2022-11-25T22:40:12.009Z,22.27
2022-11-25T22:42:39.750Z,30.50
2022-11-25T22:45:08.488Z,27.90
2022-11-25T22:47:41.253Z,21.67
2022-11-25T22:50:17.718Z,35.60
2022-11-25T22:52:45.216Z,24.70
2022-11-25T22:55:16.807Z,32.33
2022-11-25T22:57:44.315Z,35.63
2022-11-25T23:00:17.241Z,30.23
2022-11-25T23:02:44.752Z,32.53
2022-11-25T23:05:16.720Z,31.20
2022-11-25T23:07:44.231Z,17.53
2022-11-25T23:10:16.635Z,24.57
2022-11-25T23:12:44.419Z,27.67
2022-11-25T23:15:13.238Z,37.47
2022-11-25T23:17:48.866Z,23.07
2022-11-25T23:20:29.198Z,26.27
2022-11-25T23:22:57.076Z,23.17
2022-11-25T23:25:26.493Z,22.10
2022-11-25T23:27:53.885Z,18.10
2022-11-25T23:30:22.370Z,19.33
2022-11-25T23:32:50.616Z,22.20
2022-11-25T23:35:19.903Z,24.57
2022-11-25T23:37:51.386Z,25.83
2022-11-25T23:40:19.516Z,29.67
2022-11-25T23:42:47.252Z,21.60
2022-11-25T23:45:19.372Z,21.57
2022-11-25T23:47:48.181Z,21.57
2022-11-25T23:50:25.875Z,25.47
2022-11-25T23:52:55.856Z,25.93
2022-11-25T23:55:25.473Z,23.97
2022-11-25T23:57:53.040Z,28.97
